createdAt,value
2018-04-26T00:01:33.589Z,0
2018-04-26T00:02:34.219Z,0
2018-04-26T00:03:34.801Z,0
2018-04-26T00:04:35.375Z,0
2018-04-26T00:06:20.510Z,0
2018-04-26T00:07:21.091Z,0
2018-04-26T00:08:21.670Z,0
2018-04-26T00:09:22.248Z,0
2018-04-26T00:11:07.488Z,0
2018-04-26T00:12:08.070Z,0
2018-04-26T00:13:08.649Z,0
2018-04-26T00:14:09.228Z,0
2018-04-26T00:15:54.378Z,0
2018-04-26T00:16:54.995Z,0
2018-04-26T00:17:55.574Z,0
2018-04-26T00:18:56.154Z,0
2018-04-26T00:20:41.247Z,0
2018-04-26T00:21:41.830Z,0
2018-04-26T00:22:42.409Z,0
2018-04-26T00:23:42.988Z,0
2018-04-26T00:25:28.231Z,0
2018-04-26T00:26:28.960Z,0
2018-04-26T00:27:29.539Z,0
2018-04-26T00:28:30.120Z,0
2018-04-26T00:30:15.210Z,0
2018-04-26T00:31:15.790Z,0
2018-04-26T00:32:16.370Z,0
2018-04-26T00:33:17.001Z,0
2018-04-26T00:35:02.096Z,0
2018-04-26T00:36:02.679Z,0
2018-04-26T00:37:03.256Z,0
2018-04-26T00:38:03.835Z,0
2018-04-26T00:39:48.929Z,0
2018-04-26T00:40:49.600Z,0
2018-04-26T00:41:50.228Z,0
2018-04-26T00:42:50.809Z,0
2018-04-26T00:44:35.903Z,0
2018-04-26T00:45:36.482Z,0
2018-04-26T00:46:37.061Z,0
2018-04-26T00:47:37.642Z,0
2018-04-26T00:49:22.888Z,0
2018-04-26T00:50:23.465Z,0
2018-04-26T00:51:24.042Z,0
2018-04-26T00:52:24.622Z,0
2018-04-26T00:54:09.864Z,0
2018-04-26T00:55:10.444Z,0
2018-04-26T00:56:11.024Z,0
2018-04-26T00:57:11.603Z,0
2018-04-26T00:58:56.694Z,0
2018-04-26T00:59:57.277Z,0
2018-04-26T01:00:57.895Z,0
2018-04-26T01:01:58.475Z,0
2018-04-26T01:03:43.615Z,0
2018-04-26T01:04:44.244Z,0
2018-04-26T01:05:44.822Z,0
2018-04-26T01:06:45.402Z,0
2018-04-26T01:08:30.539Z,0
2018-04-26T01:09:31.120Z,0
2018-04-26T01:10:31.699Z,0
2018-04-26T01:11:32.280Z,0
2018-04-26T01:13:17.429Z,0
2018-04-26T01:14:18.003Z,0
2018-04-26T01:15:18.587Z,0
2018-04-26T01:16:19.206Z,0
2018-04-26T01:18:04.297Z,0
2018-04-26T01:19:04.880Z,0
2018-04-26T01:20:05.463Z,0
2018-04-26T01:21:06.037Z,0
2018-04-26T01:22:51.178Z,0
2018-04-26T01:23:51.757Z,0
2018-04-26T01:24:52.336Z,0
2018-04-26T01:25:52.964Z,0
2018-04-26T01:27:38.058Z,0
2018-04-26T01:28:38.638Z,0
2018-04-26T01:29:39.218Z,0
2018-04-26T01:30:39.798Z,0
2018-04-26T01:32:25.090Z,0
2018-04-26T01:33:25.669Z,0
2018-04-26T01:34:26.250Z,0
2018-04-26T01:35:26.873Z,0
2018-04-26T01:37:11.963Z,0
2018-04-26T01:38:12.543Z,0
2018-04-26T01:39:13.121Z,0
2018-04-26T01:40:13.702Z,0
2018-04-26T01:41:58.793Z,0
2018-04-26T01:42:59.525Z,0
2018-04-26T01:44:00.146Z,0
2018-04-26T01:45:00.725Z,0
2018-04-26T01:46:45.917Z,0
2018-04-26T01:47:46.497Z,0
2018-04-26T01:48:47.074Z,0
2018-04-26T01:49:47.651Z,0
2018-04-26T01:51:32.743Z,0
2018-04-26T01:52:33.326Z,0
2018-04-26T01:53:33.906Z,0
2018-04-26T01:54:34.484Z,0
2018-04-26T01:56:19.618Z,0
2018-04-26T01:57:20.198Z,0
2018-04-26T01:58:20.778Z,0
2018-04-26T01:59:21.359Z,0
2018-04-26T02:01:06.448Z,0
2018-04-26T02:02:07.026Z,0
2018-04-26T02:03:07.607Z,0
2018-04-26T02:04:08.236Z,0
2018-04-26T02:05:53.378Z,0
2018-04-26T02:06:53.958Z,0
2018-04-26T02:07:54.634Z,0
2018-04-26T02:08:55.208Z,0
2018-04-26T02:10:40.304Z,0
2018-04-26T02:11:40.883Z,0
2018-04-26T02:12:41.463Z,0
2018-04-26T02:13:42.044Z,0
2018-04-26T02:15:27.135Z,0
2018-04-26T02:16:27.715Z,0
2018-04-26T02:17:28.294Z,0
2018-04-26T02:18:28.874Z,0
2018-04-26T02:20:14.166Z,0
2018-04-26T02:21:14.791Z,0
2018-04-26T02:22:15.370Z,0
2018-04-26T02:23:15.953Z,0
2018-04-26T02:25:01.137Z,0
2018-04-26T02:26:01.715Z,0
2018-04-26T02:27:02.293Z,0
2018-04-26T02:28:02.872Z,0
2018-04-26T02:29:47.964Z,0
2018-04-26T02:30:48.544Z,0
2018-04-26T02:31:49.124Z,0
2018-04-26T02:32:49.706Z,0
2018-04-26T02:34:34.794Z,0
2018-04-26T02:35:35.425Z,0
2018-04-26T02:36:36.009Z,0
2018-04-26T02:37:36.626Z,0
2018-04-26T02:39:21.768Z,0
2018-04-26T02:40:22.346Z,0
2018-04-26T02:41:22.924Z,0
2018-04-26T02:42:23.504Z,0
2018-04-26T02:44:08.595Z,0
2018-04-26T02:45:09.223Z,0
2018-04-26T02:46:09.806Z,0
2018-04-26T02:47:10.388Z,0
2018-04-26T02:48:55.475Z,0
2018-04-26T02:49:56.050Z,0
2018-04-26T02:50:56.629Z,0
2018-04-26T02:51:57.210Z,0
2018-04-26T02:53:42.300Z,0
2018-04-26T02:54:42.880Z,0
2018-04-26T02:55:43.458Z,0
2018-04-26T02:56:44.039Z,0
2018-04-26T02:58:29.137Z,0
2018-04-26T02:59:29.758Z,0
2018-04-26T03:00:30.387Z,0
2018-04-26T03:01:30.965Z,0
2018-04-26T03:03:16.109Z,0
2018-04-26T03:04:16.688Z,0
2018-04-26T03:05:17.274Z,0
2018-04-26T03:06:17.847Z,0
2018-04-26T03:08:02.979Z,0
2018-04-26T03:09:03.560Z,0
2018-04-26T03:10:04.141Z,0
2018-04-26T03:11:04.716Z,0
2018-04-26T03:12:49.806Z,0
2018-04-26T03:13:50.384Z,0
2018-04-26T03:14:50.964Z,0
2018-04-26T03:15:51.543Z,0
2018-04-26T03:17:36.683Z,0
2018-04-26T03:18:37.267Z,0
2018-04-26T03:19:37.841Z,0
2018-04-26T03:20:38.419Z,0
2018-04-26T03:22:23.512Z,0
2018-04-26T03:23:24.090Z,0
2018-04-26T03:24:24.720Z,0
2018-04-26T03:25:25.300Z,0
2018-04-26T03:27:10.486Z,0
2018-04-26T03:28:11.063Z,0
2018-04-26T03:29:11.683Z,0
2018-04-26T03:30:12.307Z,0
2018-04-26T03:31:57.397Z,0
2018-04-26T03:32:57.975Z,0
2018-04-26T03:33:58.555Z,0
2018-04-26T03:34:59.135Z,0
2018-04-26T03:36:44.226Z,0
2018-04-26T03:37:44.855Z,0
2018-04-26T03:38:45.435Z,0
2018-04-26T03:39:46.012Z,0
2018-04-26T03:41:31.103Z,0
2018-04-26T03:42:31.683Z,0
2018-04-26T03:43:32.312Z,0
2018-04-26T03:44:32.984Z,0
2018-04-26T03:46:18.078Z,0
2018-04-26T03:47:18.660Z,0
2018-04-26T03:48:19.236Z,0
2018-04-26T03:49:19.815Z,0
2018-04-26T03:51:04.906Z,0
2018-04-26T03:52:05.486Z,0
2018-04-26T03:53:06.115Z,0
2018-04-26T03:54:06.693Z,0
2018-04-26T03:55:51.785Z,0
2018-04-26T03:56:52.364Z,0
2018-04-26T03:57:52.945Z,0
2018-04-26T03:58:53.565Z,0
2018-04-26T04:01:40.279Z,0
2018-04-26T04:02:40.847Z,0
2018-04-26T04:03:41.426Z,0
2018-04-26T04:05:26.567Z,0
2018-04-26T04:06:27.146Z,0
2018-04-26T04:07:27.722Z,0
2018-04-26T04:12:34.608Z,0
2018-04-26T04:15:39.680Z,0
2018-04-26T04:17:47.887Z,0
2018-04-26T04:22:36.647Z,0
2018-04-26T04:24:39.191Z,0
2018-04-26T04:25:39.762Z,0
2018-04-26T04:27:24.709Z,0
2018-04-26T04:28:25.254Z,0
2018-04-26T04:29:25.874Z,0
2018-04-26T04:30:26.451Z,0
2018-04-26T04:32:11.366Z,0
2018-04-26T04:33:11.937Z,0
2018-04-26T04:34:12.510Z,0
2018-04-26T04:35:13.112Z,0
2018-04-26T04:36:58.002Z,0
2018-04-26T04:37:58.575Z,0
2018-04-26T04:38:59.240Z,0
2018-04-26T04:39:59.812Z,0
2018-04-26T04:41:44.735Z,0
2018-04-26T04:42:45.361Z,0
2018-04-26T04:43:45.971Z,0
2018-04-26T04:44:46.597Z,0
2018-04-26T04:46:31.514Z,0
2018-04-26T04:47:32.087Z,0
2018-04-26T04:48:32.703Z,0
2018-04-26T04:49:33.277Z,0
2018-04-26T04:51:18.201Z,0
2018-04-26T04:52:18.774Z,0
2018-04-26T04:53:19.346Z,0
2018-04-26T04:54:19.919Z,0
2018-04-26T04:56:04.841Z,0
2018-04-26T04:57:05.411Z,0
2018-04-26T04:58:06.035Z,0
2018-04-26T04:59:06.607Z,0
2018-04-26T05:00:51.629Z,0
2018-04-26T05:01:52.203Z,0
2018-04-26T05:02:52.775Z,0
2018-04-26T05:03:53.348Z,0
2018-04-26T05:05:38.271Z,0
2018-04-26T05:06:38.842Z,0
2018-04-26T05:07:39.417Z,0
2018-04-26T05:08:39.990Z,0
2018-04-26T05:10:24.912Z,0
2018-04-26T05:11:25.483Z,0
2018-04-26T05:12:26.057Z,0
2018-04-26T05:13:26.632Z,0
2018-04-26T05:15:11.604Z,0
2018-04-26T05:16:57.987Z,0
2018-04-26T05:18:12.325Z,0
2018-04-26T05:22:31.672Z,0
2018-04-26T05:29:27.807Z,0
2018-04-26T05:30:28.478Z,0
2018-04-26T05:31:29.100Z,0
2018-04-26T05:32:29.673Z,0
2018-04-26T05:34:14.794Z,0
2018-04-26T05:35:15.365Z,0
2018-04-26T05:36:15.937Z,0
2018-04-26T05:37:16.510Z,0
2018-04-26T05:39:01.432Z,0
2018-04-26T05:40:02.004Z,0
2018-04-26T05:41:02.576Z,0
2018-04-26T05:42:03.148Z,0
2018-04-26T05:43:48.069Z,0
2018-04-26T05:44:48.641Z,0
2018-04-26T05:45:49.215Z,0
2018-04-26T05:46:49.792Z,0
2018-04-26T05:48:34.863Z,0
2018-04-26T05:49:35.383Z,0
2018-04-26T05:50:35.956Z,0
2018-04-26T05:51:36.528Z,0
2018-04-26T05:53:21.501Z,0
2018-04-26T05:54:22.076Z,0
2018-04-26T05:55:22.648Z,0
2018-04-26T05:56:23.223Z,0
2018-04-26T05:58:08.143Z,0
2018-04-26T05:59:08.715Z,0
2018-04-26T06:00:09.289Z,0
2018-04-26T06:01:09.862Z,0
2018-04-26T06:02:54.783Z,0
2018-04-26T06:03:55.354Z,0
2018-04-26T06:04:55.929Z,0
2018-04-26T06:05:56.551Z,0
2018-04-26T06:07:41.474Z,0
2018-04-26T06:08:42.196Z,0
2018-04-26T06:09:42.769Z,0
2018-04-26T06:10:43.342Z,0
2018-04-26T06:12:28.265Z,0
2018-04-26T06:13:28.838Z,0
2018-04-26T06:14:29.411Z,0
2018-04-26T06:15:29.985Z,0
2018-04-26T06:17:14.947Z,0
2018-04-26T06:18:15.479Z,0
2018-04-26T06:19:16.061Z,0
2018-04-26T06:20:16.627Z,0
2018-04-26T06:22:01.698Z,0
2018-04-26T06:23:02.271Z,0
2018-04-26T06:24:02.844Z,0
2018-04-26T06:25:03.517Z,0
2018-04-26T06:26:48.427Z,0
2018-04-26T06:27:49.049Z,0
2018-04-26T06:28:49.622Z,0
2018-04-26T06:29:50.193Z,0
2018-04-26T06:31:35.116Z,0
2018-04-26T06:32:35.689Z,0
2018-04-26T06:33:36.262Z,0
2018-04-26T06:34:36.837Z,0
2018-04-26T06:36:21.763Z,0
2018-04-26T06:37:22.331Z,0
2018-04-26T06:38:22.906Z,0
2018-04-26T06:39:23.480Z,0
2018-04-26T06:41:08.452Z,0
2018-04-26T06:42:09.026Z,0
2018-04-26T06:43:09.648Z,0
2018-04-26T06:44:10.221Z,0
2018-04-26T06:45:55.143Z,0
2018-04-26T06:46:55.715Z,0
2018-04-26T06:47:56.377Z,0
2018-04-26T06:48:56.904Z,0
2018-04-26T06:50:41.973Z,0
2018-04-26T06:51:42.545Z,0
2018-04-26T06:52:43.118Z,0
2018-04-26T06:53:43.742Z,0
2018-04-26T06:55:28.663Z,0
2018-04-26T06:56:29.235Z,0
2018-04-26T06:57:29.813Z,0
2018-04-26T06:58:30.429Z,0
2018-04-26T07:00:15.398Z,0
2018-04-26T07:01:15.971Z,0
2018-04-26T07:02:16.545Z,0
2018-04-26T07:03:17.118Z,0
2018-04-26T07:05:02.039Z,0
2018-04-26T07:06:02.661Z,0
2018-04-26T07:07:03.233Z,0
2018-04-26T07:08:03.805Z,0
2018-04-26T07:09:48.731Z,0
2018-04-26T07:10:49.300Z,0
2018-04-26T07:11:49.925Z,0
2018-04-26T07:12:50.498Z,0
2018-04-26T07:14:35.420Z,0
2018-04-26T07:15:36.002Z,0
2018-04-26T07:16:36.615Z,0
2018-04-26T07:17:37.184Z,0
2018-04-26T07:19:22.154Z,0
2018-04-26T07:20:22.729Z,0
2018-04-26T07:21:23.301Z,0
2018-04-26T07:22:23.873Z,0
2018-04-26T07:24:08.796Z,0
2018-04-26T07:25:09.368Z,0
2018-04-26T07:26:10.042Z,0
2018-04-26T07:27:10.565Z,0
2018-04-26T07:28:55.490Z,0
2018-04-26T07:29:56.103Z,0
2018-04-26T07:30:56.677Z,0
2018-04-26T07:31:57.250Z,0
2018-04-26T07:33:42.320Z,0
2018-04-26T07:34:42.894Z,0
2018-04-26T07:35:43.467Z,0
2018-04-26T07:36:44.090Z,0
2018-04-26T07:38:29.013Z,0
2018-04-26T07:39:29.585Z,0
2018-04-26T07:40:30.159Z,0
2018-04-26T07:41:30.733Z,0
2018-04-26T07:43:15.853Z,0
2018-04-26T07:44:16.427Z,0
2018-04-26T07:45:17.000Z,0
2018-04-26T07:46:17.573Z,0
2018-04-26T07:48:02.492Z,0
2018-04-26T07:49:03.064Z,0
2018-04-26T07:50:03.639Z,0
2018-04-26T07:51:04.213Z,0
2018-04-26T07:52:49.183Z,0
2018-04-26T07:53:49.757Z,0
2018-04-26T07:54:50.329Z,0
2018-04-26T07:55:50.954Z,0
2018-04-26T07:57:35.873Z,0
2018-04-26T07:58:36.448Z,0
2018-04-26T07:59:37.113Z,0
2018-04-26T08:00:37.686Z,0
2018-04-26T08:02:22.608Z,0
2018-04-26T08:03:23.181Z,0
2018-04-26T08:04:23.755Z,0
2018-04-26T08:05:24.328Z,0
2018-04-26T08:07:09.251Z,0
2018-04-26T08:08:09.824Z,0
2018-04-26T08:09:10.397Z,0
2018-04-26T08:10:11.022Z,0
2018-04-26T08:11:55.945Z,0
2018-04-26T08:12:56.519Z,0
2018-04-26T08:13:57.134Z,0
2018-04-26T08:14:57.708Z,0
2018-04-26T08:16:42.678Z,0
2018-04-26T08:17:43.252Z,0
2018-04-26T08:18:43.824Z,0
2018-04-26T08:19:44.421Z,0
2018-04-26T08:21:29.330Z,0
2018-04-26T08:22:29.942Z,0
2018-04-26T08:23:30.515Z,0
2018-04-26T08:24:31.087Z,8
2018-04-26T08:26:16.010Z,8
2018-04-26T08:27:16.590Z,8
2018-04-26T08:28:17.157Z,8
2018-04-26T08:29:17.729Z,8
2018-04-26T08:31:02.704Z,8
2018-04-26T08:32:03.326Z,8
2018-04-26T08:33:03.898Z,8
2018-04-26T08:34:04.471Z,8
2018-04-26T08:35:49.392Z,12
2018-04-26T08:36:50.036Z,12
2018-04-26T08:37:50.542Z,12
2018-04-26T08:38:51.114Z,12
2018-04-26T08:40:36.038Z,12
2018-04-26T08:41:36.612Z,12
2018-04-26T08:42:37.246Z,12
2018-04-26T08:43:37.815Z,12
2018-04-26T08:45:22.777Z,16
2018-04-26T08:46:23.351Z,16
2018-04-26T08:47:23.925Z,12
2018-04-26T08:48:24.550Z,12
2018-04-26T08:50:09.474Z,12
2018-04-26T08:51:10.047Z,12
2018-04-26T08:52:10.671Z,12
2018-04-26T08:53:11.246Z,12
2018-04-26T08:54:56.168Z,12
2018-04-26T08:55:56.743Z,12
2018-04-26T08:56:57.321Z,12
2018-04-26T08:57:57.993Z,12
2018-04-26T08:59:43.043Z,12
2018-04-26T09:00:43.527Z,12
2018-04-26T09:01:44.102Z,16
2018-04-26T09:02:44.676Z,16
2018-04-26T09:04:29.599Z,16
2018-04-26T09:05:30.174Z,16
2018-04-26T09:06:30.798Z,16
2018-04-26T09:07:31.372Z,16
2018-04-26T09:09:16.295Z,12
2018-04-26T09:10:16.869Z,12
2018-04-26T09:11:17.443Z,12
2018-04-26T09:12:18.071Z,12
2018-04-26T09:14:03.035Z,16
2018-04-26T09:15:03.656Z,16
2018-04-26T09:16:04.283Z,16
2018-04-26T09:17:04.891Z,16
2018-04-26T09:18:49.863Z,16
2018-04-26T09:19:50.437Z,16
2018-04-26T09:20:51.010Z,16
2018-04-26T09:21:51.617Z,12
2018-04-26T09:23:36.508Z,16
2018-04-26T09:24:37.082Z,16
2018-04-26T09:25:37.658Z,16
2018-04-26T09:26:38.229Z,16
2018-04-26T09:28:23.155Z,16
2018-04-26T09:29:23.727Z,16
2018-04-26T09:30:24.302Z,16
2018-04-26T09:31:24.876Z,16
2018-04-26T09:33:10.001Z,20
2018-04-26T09:34:10.575Z,16
2018-04-26T09:35:11.150Z,16
2018-04-26T09:36:11.724Z,16
2018-04-26T09:37:56.696Z,16
2018-04-26T09:38:57.270Z,20
2018-04-26T09:39:57.846Z,20
2018-04-26T09:40:58.419Z,20
2018-04-26T09:42:43.351Z,20
2018-04-26T09:43:43.960Z,20
2018-04-26T09:44:44.534Z,16
2018-04-26T09:45:45.110Z,16
2018-04-26T09:47:30.183Z,16
2018-04-26T09:48:30.759Z,20
2018-04-26T09:49:31.375Z,20
2018-04-26T09:50:31.948Z,20
2018-04-26T09:52:16.873Z,20
2018-04-26T09:53:17.496Z,20
2018-04-26T09:54:18.070Z,20
2018-04-26T09:55:18.643Z,20
2018-04-26T09:57:03.567Z,20
2018-04-26T09:58:04.141Z,20
2018-04-26T09:59:04.714Z,24
2018-04-26T10:00:05.290Z,20
2018-04-26T10:01:50.330Z,20
2018-04-26T10:02:50.840Z,20
2018-04-26T10:03:51.415Z,20
2018-04-26T10:04:52.042Z,20
2018-04-26T10:06:36.960Z,20
2018-04-26T10:07:37.532Z,20
2018-04-26T10:08:38.151Z,20
2018-04-26T10:09:38.726Z,24
2018-04-26T10:11:23.651Z,24
2018-04-26T10:12:24.226Z,24
2018-04-26T10:13:24.802Z,24
2018-04-26T10:14:25.395Z,20
2018-04-26T10:16:10.300Z,20
2018-04-26T10:17:10.873Z,20
2018-04-26T10:18:11.448Z,24
2018-04-26T10:19:12.022Z,24
2018-04-26T10:20:56.997Z,24
2018-04-26T10:21:57.573Z,24
2018-04-26T10:22:58.241Z,24
2018-04-26T10:23:58.816Z,24
2018-04-26T10:25:43.789Z,24
2018-04-26T10:26:44.366Z,24
2018-04-26T10:27:44.941Z,24
2018-04-26T10:28:45.515Z,24
2018-04-26T10:30:30.438Z,28
2018-04-26T10:31:31.012Z,28
2018-04-26T10:32:31.587Z,24
2018-04-26T10:33:32.162Z,24
2018-04-26T10:35:17.160Z,24
2018-04-26T10:36:17.705Z,24
2018-04-26T10:37:18.280Z,28
2018-04-26T10:38:18.854Z,28
2018-04-26T10:40:03.779Z,28
2018-04-26T10:41:04.403Z,28
2018-04-26T10:42:05.032Z,24
2018-04-26T10:43:05.601Z,28
2018-04-26T10:44:50.522Z,28
2018-04-26T10:45:51.103Z,28
2018-04-26T10:46:51.765Z,28
2018-04-26T10:47:52.338Z,28
2018-04-26T10:49:37.267Z,28
2018-04-26T10:50:37.837Z,32
2018-04-26T10:51:38.411Z,28
2018-04-26T10:52:38.987Z,28
2018-04-26T10:54:23.912Z,28
2018-04-26T10:55:24.488Z,28
2018-04-26T10:56:25.060Z,28
2018-04-26T10:57:25.635Z,32
2018-04-26T10:59:10.610Z,32
2018-04-26T11:00:11.266Z,32
2018-04-26T11:01:11.808Z,32
2018-04-26T11:02:12.383Z,28
2018-04-26T11:03:57.306Z,28
2018-04-26T11:04:57.880Z,32
2018-04-26T11:05:58.506Z,32
2018-04-26T11:06:59.080Z,32
2018-04-26T11:08:44.005Z,32
2018-04-26T11:09:44.579Z,32
2018-04-26T11:10:45.155Z,32
2018-04-26T11:11:45.730Z,32
2018-04-26T11:13:30.655Z,32
2018-04-26T11:14:31.228Z,32
2018-04-26T11:15:31.824Z,32
2018-04-26T11:16:32.379Z,32
2018-04-26T11:18:17.354Z,32
2018-04-26T11:19:17.980Z,36
2018-04-26T11:20:18.606Z,36
2018-04-26T11:21:19.184Z,32
2018-04-26T11:23:04.105Z,32
2018-04-26T11:24:04.680Z,32
2018-04-26T11:25:05.304Z,32
2018-04-26T11:26:05.879Z,36
2018-04-26T11:27:50.804Z,36
2018-04-26T11:28:51.379Z,36
2018-04-26T11:29:51.955Z,36
2018-04-26T11:30:52.618Z,36
2018-04-26T11:32:37.654Z,36
2018-04-26T11:33:38.231Z,36
2018-04-26T11:34:38.809Z,32
2018-04-26T11:35:39.426Z,32
2018-04-26T11:37:29.451Z,36
2018-04-26T11:38:30.026Z,32
2018-04-26T11:39:30.650Z,36
2018-04-26T11:40:31.224Z,36
2018-04-26T11:42:16.147Z,36
2018-04-26T11:43:16.722Z,36
2018-04-26T11:44:17.302Z,36
2018-04-26T11:45:17.872Z,40
2018-04-26T11:47:02.797Z,36
2018-04-26T11:48:03.372Z,36
2018-04-26T11:49:03.949Z,36
2018-04-26T11:50:04.576Z,36
2018-04-26T11:51:49.499Z,36
2018-04-26T11:52:50.123Z,36
2018-04-26T11:53:50.697Z,36
2018-04-26T11:54:51.327Z,36
2018-04-26T11:56:36.245Z,40
2018-04-26T11:57:36.820Z,40
2018-04-26T11:58:37.396Z,40
2018-04-26T11:59:39.267Z,40
2018-04-26T12:01:24.244Z,36
2018-04-26T12:02:24.845Z,40
2018-04-26T12:03:25.431Z,36
2018-04-26T12:04:26.020Z,40
2018-04-26T12:06:10.939Z,40
2018-04-26T12:07:11.514Z,44
2018-04-26T12:08:12.089Z,44
2018-04-26T12:09:12.713Z,44
2018-04-26T12:10:57.641Z,40
2018-04-26T12:11:58.215Z,44
2018-04-26T12:12:58.790Z,44
2018-04-26T12:13:59.415Z,40
2018-04-26T12:15:44.391Z,40
2018-04-26T12:16:44.967Z,40
2018-04-26T12:17:45.545Z,40
2018-04-26T12:18:46.160Z,40
2018-04-26T12:20:31.084Z,44
2018-04-26T12:21:31.659Z,44
2018-04-26T12:22:32.234Z,44
2018-04-26T12:23:32.809Z,44
2018-04-26T12:25:17.736Z,40
2018-04-26T12:26:18.310Z,40
2018-04-26T12:27:18.886Z,44
2018-04-26T12:28:19.511Z,44
2018-04-26T12:30:04.437Z,44
2018-04-26T12:31:05.016Z,44
2018-04-26T12:32:05.793Z,44
2018-04-26T12:33:06.458Z,44
2018-04-26T12:34:51.379Z,44
2018-04-26T12:35:51.953Z,44
2018-04-26T12:36:52.538Z,48
2018-04-26T12:37:53.104Z,44
2018-04-26T12:39:38.030Z,44
2018-04-26T12:40:38.605Z,44
2018-04-26T12:41:39.257Z,44
2018-04-26T12:42:39.755Z,44
2018-04-26T12:44:24.681Z,44
2018-04-26T12:45:25.260Z,44
2018-04-26T12:46:25.834Z,48
2018-04-26T12:47:26.410Z,48
2018-04-26T12:49:11.386Z,48
2018-04-26T12:50:11.965Z,44
2018-04-26T12:51:12.589Z,44
2018-04-26T12:52:13.215Z,44
2018-04-26T12:53:58.139Z,48
2018-04-26T12:54:58.714Z,48
2018-04-26T12:55:59.291Z,48
2018-04-26T12:56:59.866Z,48
2018-04-26T12:58:44.793Z,48
2018-04-26T12:59:45.367Z,48
2018-04-26T13:00:45.943Z,48
2018-04-26T13:01:46.519Z,48
2018-04-26T13:03:31.444Z,48
2018-04-26T13:04:32.021Z,48
2018-04-26T13:05:32.639Z,48
2018-04-26T13:06:33.213Z,48
2018-04-26T13:08:18.189Z,52
2018-04-26T13:09:18.766Z,52
2018-04-26T13:10:19.392Z,52
2018-04-26T13:11:20.019Z,48
2018-04-26T13:13:04.943Z,48
2018-04-26T13:14:05.518Z,48
2018-04-26T13:15:06.094Z,48
2018-04-26T13:16:06.672Z,48
2018-04-26T13:17:51.595Z,52
2018-04-26T13:18:52.169Z,52
2018-04-26T13:19:52.745Z,52
2018-04-26T13:20:53.321Z,52
2018-04-26T13:22:38.250Z,52
2018-04-26T13:23:38.822Z,48
2018-04-26T13:24:39.398Z,48
2018-04-26T13:25:39.974Z,52
2018-04-26T13:27:24.978Z,52
2018-04-26T13:28:25.578Z,52
2018-04-26T13:29:26.196Z,52
2018-04-26T13:30:26.781Z,52
2018-04-26T13:32:11.705Z,56
2018-04-26T13:33:12.280Z,56
2018-04-26T13:34:12.854Z,52
2018-04-26T13:35:13.430Z,52
2018-04-26T13:36:58.408Z,52
2018-04-26T13:37:58.984Z,52
2018-04-26T13:38:59.559Z,52
2018-04-26T13:40:00.135Z,52
2018-04-26T13:41:45.060Z,56
2018-04-26T13:42:45.635Z,56
2018-04-26T13:43:46.210Z,56
2018-04-26T13:44:46.785Z,56
2018-04-26T13:46:31.711Z,52
2018-04-26T13:47:32.368Z,52
2018-04-26T13:48:32.960Z,52
2018-04-26T13:49:33.534Z,52
2018-04-26T13:51:18.461Z,56
2018-04-26T13:52:19.035Z,56
2018-04-26T13:53:19.634Z,56
2018-04-26T13:54:20.231Z,56
2018-04-26T13:56:05.206Z,56
2018-04-26T13:57:05.786Z,56
2018-04-26T13:58:06.401Z,56
2018-04-26T13:59:06.975Z,56
2018-04-26T14:00:51.900Z,52
2018-04-26T14:01:52.475Z,56
2018-04-26T14:02:53.051Z,56
2018-04-26T14:03:53.627Z,56
2018-04-26T14:05:38.668Z,56
2018-04-26T14:06:39.179Z,56
2018-04-26T14:07:39.806Z,56
2018-04-26T14:08:40.380Z,56
2018-04-26T14:10:25.456Z,56
2018-04-26T14:11:26.032Z,56
2018-04-26T14:12:26.607Z,56
2018-04-26T14:13:27.186Z,60
2018-04-26T14:15:12.149Z,56
2018-04-26T14:16:12.727Z,56
2018-04-26T14:17:13.394Z,56
2018-04-26T14:18:13.967Z,56
2018-04-26T14:19:58.894Z,56
2018-04-26T14:20:59.470Z,56
2018-04-26T14:22:00.046Z,56
2018-04-26T14:23:00.712Z,56
2018-04-26T14:24:45.596Z,56
2018-04-26T14:25:46.172Z,60
2018-04-26T14:26:46.747Z,60
2018-04-26T14:27:47.323Z,60
2018-04-26T14:29:32.416Z,60
2018-04-26T14:30:32.877Z,60
2018-04-26T14:31:33.453Z,56
2018-04-26T14:32:34.028Z,56
2018-04-26T14:34:18.957Z,56
2018-04-26T14:35:19.529Z,56
2018-04-26T14:36:20.109Z,56
2018-04-26T14:37:20.723Z,56
2018-04-26T14:39:05.605Z,56
2018-04-26T14:40:06.232Z,56
2018-04-26T14:41:06.808Z,60
2018-04-26T14:42:07.382Z,60
2018-04-26T14:43:52.507Z,56
2018-04-26T14:44:53.083Z,56
2018-04-26T14:45:53.657Z,56
2018-04-26T14:46:54.233Z,56
2018-04-26T14:48:39.160Z,60
2018-04-26T14:49:39.829Z,60
2018-04-26T14:50:40.359Z,60
2018-04-26T14:51:40.933Z,60
2018-04-26T14:53:25.860Z,60
2018-04-26T14:54:26.435Z,60
2018-04-26T14:55:27.011Z,60
2018-04-26T14:56:27.587Z,60
2018-04-26T14:58:12.513Z,60
2018-04-26T14:59:13.087Z,60
2018-04-26T15:00:13.665Z,56
2018-04-26T15:01:14.241Z,60
2018-04-26T15:02:59.217Z,56
2018-04-26T15:03:59.795Z,56
2018-04-26T15:05:00.372Z,56
2018-04-26T15:06:00.995Z,56
2018-04-26T15:07:45.920Z,56
2018-04-26T15:08:46.535Z,56
2018-04-26T15:09:47.070Z,56
2018-04-26T15:10:47.646Z,56
2018-04-26T15:12:37.628Z,56
2018-04-26T15:13:38.248Z,60
2018-04-26T15:14:38.865Z,56
2018-04-26T15:15:39.441Z,56
2018-04-26T15:17:24.365Z,60
2018-04-26T15:18:24.939Z,60
2018-04-26T15:19:25.518Z,56
2018-04-26T15:20:26.241Z,60
2018-04-26T15:22:11.216Z,60
2018-04-26T15:23:11.792Z,60
2018-04-26T15:24:12.368Z,60
2018-04-26T15:25:12.942Z,60
2018-04-26T15:26:57.868Z,64
2018-04-26T15:27:58.444Z,60
2018-04-26T15:28:59.027Z,64
2018-04-26T15:29:59.602Z,64
2018-04-26T15:31:44.529Z,64
2018-04-26T15:32:45.181Z,64
2018-04-26T15:33:45.680Z,64
2018-04-26T15:34:46.306Z,64
2018-04-26T15:36:31.280Z,64
2018-04-26T15:37:31.853Z,64
2018-04-26T15:38:32.577Z,64
2018-04-26T15:39:33.154Z,64
2018-04-26T15:41:18.127Z,68
2018-04-26T15:42:18.702Z,64
2018-04-26T15:43:19.278Z,68
2018-04-26T15:44:19.874Z,68
2018-04-26T15:46:04.778Z,68
2018-04-26T15:47:05.353Z,68
2018-04-26T15:48:05.930Z,72
2018-04-26T15:49:06.505Z,68
2018-04-26T15:50:51.481Z,72
2018-04-26T15:51:52.100Z,72
2018-04-26T15:52:52.677Z,72
2018-04-26T15:53:53.252Z,72
2018-04-26T15:55:38.177Z,76
2018-04-26T15:56:38.753Z,72
2018-04-26T15:57:39.328Z,76
2018-04-26T15:58:40.019Z,72
2018-04-26T16:00:24.934Z,72
2018-04-26T16:01:25.511Z,76
2018-04-26T16:02:26.087Z,76
2018-04-26T16:03:26.663Z,76
2018-04-26T16:05:11.587Z,80
2018-04-26T16:06:12.163Z,80
2018-04-26T16:07:12.748Z,80
2018-04-26T16:08:13.357Z,76
2018-04-26T16:09:58.435Z,80
2018-04-26T16:10:59.010Z,80
2018-04-26T16:11:59.585Z,84
2018-04-26T16:13:00.205Z,80
2018-04-26T16:14:45.130Z,84
2018-04-26T16:15:45.705Z,84
2018-04-26T16:16:46.358Z,84
2018-04-26T16:17:46.907Z,88
2018-04-26T16:19:31.833Z,88
2018-04-26T16:20:32.409Z,88
2018-04-26T16:21:33.042Z,88
2018-04-26T16:22:33.609Z,88
2018-04-26T16:24:18.536Z,88
2018-04-26T16:25:19.110Z,92
2018-04-26T16:26:19.687Z,92
2018-04-26T16:27:20.263Z,92
2018-04-26T16:29:05.241Z,92
2018-04-26T16:30:05.817Z,96
2018-04-26T16:31:06.392Z,96
2018-04-26T16:32:06.968Z,96
2018-04-26T16:33:51.944Z,100
2018-04-26T16:34:52.521Z,100
2018-04-26T16:35:53.097Z,100
2018-04-26T16:36:53.733Z,100
2018-04-26T16:38:38.601Z,100
2018-04-26T16:39:39.177Z,104
2018-04-26T16:40:39.847Z,104
2018-04-26T16:41:40.427Z,104
2018-04-26T16:43:25.348Z,104
2018-04-26T16:44:25.968Z,108
2018-04-26T16:45:26.501Z,108
2018-04-26T16:46:27.077Z,108
2018-04-26T16:48:12.055Z,112
2018-04-26T16:49:12.723Z,112
2018-04-26T16:50:13.260Z,112
2018-04-26T16:51:13.839Z,112
2018-04-26T16:52:58.763Z,116
2018-04-26T16:53:59.340Z,116
2018-04-26T16:54:59.921Z,112
2018-04-26T16:56:00.494Z,116
2018-04-26T16:57:45.420Z,116
2018-04-26T16:58:45.997Z,120
2018-04-26T16:59:46.637Z,120
2018-04-26T17:00:47.200Z,120
2018-04-26T17:02:32.127Z,124
2018-04-26T17:03:32.707Z,124
2018-04-26T17:04:33.322Z,124
2018-04-26T17:05:33.858Z,124
2018-04-26T17:07:18.786Z,124
2018-04-26T17:08:19.362Z,124
2018-04-26T17:09:20.089Z,124
2018-04-26T17:10:20.717Z,124
2018-04-26T17:12:05.642Z,128
2018-04-26T17:13:06.261Z,128
2018-04-26T17:14:06.880Z,128
2018-04-26T17:15:07.456Z,128
2018-04-26T17:16:52.384Z,132
2018-04-26T17:17:53.011Z,128
2018-04-26T17:18:53.588Z,128
2018-04-26T17:19:54.164Z,132
2018-04-26T17:21:39.090Z,132
2018-04-26T17:22:39.698Z,132
2018-04-26T17:23:40.242Z,132
2018-04-26T17:24:40.872Z,132
2018-04-26T17:26:25.838Z,136
2018-04-26T17:27:26.414Z,136
2018-04-26T17:28:26.990Z,136
2018-04-26T17:29:27.566Z,136
2018-04-26T17:31:12.592Z,136
2018-04-26T17:32:13.169Z,136
2018-04-26T17:33:13.899Z,140
2018-04-26T17:34:14.516Z,136
2018-04-26T17:35:59.445Z,136
2018-04-26T17:37:00.018Z,140
2018-04-26T17:38:00.593Z,140
2018-04-26T17:39:01.220Z,140
2018-04-26T17:40:46.147Z,136